BAW520 EGLL-LOWW
Flight info
| Callsign | BAW520 |
|---|---|
| Flight time | N/A |
| Altitude | 37000 |
| Route | DET L6 DVR UL9 KONAN DCT KOK UL607 FERDI DCT MATUG DCT GUBAX DCT BARSU DCT EKSOS DCT LULAR DCT RUDAP DCT BUDEX BUDEX2W |
| Aircraft | B77W/H-SDE1E2E3FGHIJ2J3J4J5M1RWXY/LB1D1 |
Departure
| Time | 2026-05-06 17:28 |
|---|---|
| Airport | London Heathrow Airport (EGLL) |
Arrival
| Time | N/A |
|---|---|
| Airport | Vienna International Airport (LOWW) |
| Time | Latitude | Longitude | Altitude | Speed | Heading |
|---|---|---|---|---|---|
| 2026-05-06 17:05 | 51.47048 | -0.48241 | 95 ft | 0 kts | 90° |
| 2026-05-06 17:19 | 51.47048 | -0.48279 | 94 ft | 4 kts | 90° |
| 2026-05-06 17:19 | 51.47048 | -0.48315 | 93 ft | 4 kts | 105° |
| 2026-05-06 17:20 | 51.47060 | -0.48348 | 93 ft | 4 kts | 152° |
| 2026-05-06 17:20 | 51.47085 | -0.48359 | 92 ft | 4 kts | 179° |
| 2026-05-06 17:20 | 51.47101 | -0.48359 | 91 ft | 0 kts | 180° |
| 2026-05-06 17:25 | 51.47090 | -0.48359 | 96 ft | 4 kts | 180° |
| 2026-05-06 17:25 | 51.47054 | -0.48359 | 94 ft | 8 kts | 180° |
| 2026-05-06 17:25 | 51.46990 | -0.48358 | 94 ft | 10 kts | 180° |
| 2026-05-06 17:25 | 51.46921 | -0.48359 | 94 ft | 10 kts | 184° |
| 2026-05-06 17:26 | 51.46873 | -0.48439 | 96 ft | 12 kts | 226° |
| 2026-05-06 17:26 | 51.46773 | -0.48473 | 94 ft | 15 kts | 179° |
| 2026-05-06 17:26 | 51.46671 | -0.48497 | 94 ft | 15 kts | 223° |
| 2026-05-06 17:26 | 51.46650 | -0.48664 | 94 ft | 16 kts | 267° |
| 2026-05-06 17:27 | 51.46578 | -0.48777 | 94 ft | 16 kts | 198° |
| 2026-05-06 17:27 | 51.46487 | -0.48713 | 96 ft | 16 kts | 115° |
| 2026-05-06 17:27 | 51.46478 | -0.48628 | 96 ft | 0 kts | 90° |
| 2026-05-06 17:27 | 51.46478 | -0.48615 | 96 ft | 9 kts | 90° |
| 2026-05-06 17:28 | 51.46481 | -0.47979 | 92 ft | 117 kts | 89° |
| 2026-05-06 17:28 | 51.46505 | -0.46050 | 327 ft | 212 kts | 86° |
| 2026-05-06 17:28 | 51.46454 | -0.43690 | 2162 ft | 210 kts | 93° |
| 2026-05-06 17:28 | 51.46274 | -0.41243 | 3065 ft | 229 kts | 97° |
| 2026-05-06 17:29 | 51.45654 | -0.38778 | 3668 ft | 253 kts | 129° |
| 2026-05-06 17:29 | 51.44288 | -0.36944 | 4527 ft | 259 kts | 136° |
| 2026-05-06 17:29 | 51.43352 | -0.34505 | 5383 ft | 262 kts | 101° |
| 2026-05-06 17:29 | 51.43057 | -0.31625 | 5947 ft | 269 kts | 98° |
| 2026-05-06 17:30 | 51.42624 | -0.28662 | 5993 ft | 277 kts | 103° |
| 2026-05-06 17:30 | 51.42219 | -0.25648 | 6010 ft | 277 kts | 98° |
| 2026-05-06 17:30 | 51.41901 | -0.22611 | 5997 ft | 275 kts | 98° |
| 2026-05-06 17:30 | 51.41544 | -0.19617 | 5995 ft | 272 kts | 99° |
| 2026-05-06 17:31 | 51.41159 | -0.16654 | 5997 ft | 271 kts | 100° |
| 2026-05-06 17:31 | 51.40760 | -0.13704 | 6010 ft | 271 kts | 101° |
| 2026-05-06 17:31 | 51.40310 | -0.10758 | 6495 ft | 273 kts | 102° |
| 2026-05-06 17:31 | 51.39838 | -0.07784 | 7596 ft | 276 kts | 103° |
| 2026-05-06 17:32 | 51.39357 | -0.04760 | 8563 ft | 284 kts | 103° |
| 2026-05-06 17:32 | 51.38863 | -0.01657 | 9573 ft | 290 kts | 103° |
| 2026-05-06 17:32 | 51.38361 | 0.01502 | 10526 ft | 296 kts | 103° |
| 2026-05-06 17:32 | 51.37837 | 0.04810 | 11068 ft | 319 kts | 103° |
| 2026-05-06 17:33 | 51.37266 | 0.08417 | 11338 ft | 350 kts | 103° |
| 2026-05-06 17:33 | 51.36642 | 0.12347 | 11821 ft | 372 kts | 103° |
| 2026-05-06 17:33 | 51.35994 | 0.16413 | 12762 ft | 381 kts | 103° |
| 2026-05-06 17:33 | 51.35336 | 0.20537 | 13869 ft | 385 kts | 103° |
| 2026-05-06 17:34 | 51.34666 | 0.24723 | 14816 ft | 391 kts | 104° |
| 2026-05-06 17:34 | 51.33986 | 0.28969 | 15736 ft | 397 kts | 104° |
| 2026-05-06 17:34 | 51.33304 | 0.33220 | 16670 ft | 403 kts | 104° |
| 2026-05-06 17:34 | 51.32600 | 0.37597 | 17602 ft | 409 kts | 104° |
| 2026-05-06 17:35 | 51.31883 | 0.42043 | 18510 ft | 414 kts | 104° |
| 2026-05-06 17:35 | 51.31159 | 0.46518 | 19361 ft | 419 kts | 104° |
| 2026-05-06 17:35 | 51.30490 | 0.51099 | 20148 ft | 424 kts | 100° |
| 2026-05-06 17:36 | 51.29627 | 0.60546 | 21763 ft | 434 kts | 97° |
| 2026-05-06 17:36 | 51.29226 | 0.65350 | 22524 ft | 440 kts | 97° |
| 2026-05-06 17:36 | 51.28814 | 0.70223 | 23307 ft | 444 kts | 98° |
| 2026-05-06 17:36 | 51.28386 | 0.75148 | 24003 ft | 449 kts | 98° |
| 2026-05-06 17:37 | 51.27946 | 0.80099 | 24657 ft | 452 kts | 98° |
| 2026-05-06 17:37 | 51.27499 | 0.85029 | 25316 ft | 456 kts | 99° |
| 2026-05-06 17:37 | 51.27038 | 0.90057 | 25930 ft | 460 kts | 99° |
| 2026-05-06 17:37 | 51.26568 | 0.95121 | 26550 ft | 463 kts | 99° |
| 2026-05-06 17:38 | 51.26092 | 1.00236 | 27160 ft | 467 kts | 99° |
| 2026-05-06 17:38 | 51.25610 | 1.05380 | 27735 ft | 471 kts | 99° |
| 2026-05-06 17:38 | 51.25122 | 1.10565 | 28314 ft | 474 kts | 99° |
| 2026-05-06 17:38 | 51.24629 | 1.15792 | 28877 ft | 478 kts | 99° |
| 2026-05-06 17:39 | 51.24131 | 1.21042 | 29392 ft | 481 kts | 99° |
| 2026-05-06 17:39 | 51.23624 | 1.26358 | 29892 ft | 485 kts | 99° |
| 2026-05-06 17:39 | 51.23113 | 1.31699 | 30319 ft | 487 kts | 99° |
| 2026-05-06 17:39 | 51.22597 | 1.37056 | 30724 ft | 489 kts | 100° |
| 2026-05-06 17:40 | 51.22079 | 1.42412 | 31207 ft | 489 kts | 100° |
| 2026-05-06 17:40 | 51.21562 | 1.47738 | 31890 ft | 484 kts | 100° |
| 2026-05-06 17:40 | 51.21046 | 1.53021 | 32489 ft | 481 kts | 100° |
| 2026-05-06 17:40 | 51.20529 | 1.58296 | 32972 ft | 481 kts | 100° |
| 2026-05-06 17:41 | 51.20007 | 1.63581 | 33381 ft | 483 kts | 100° |
| 2026-05-06 17:41 | 51.19483 | 1.68871 | 33845 ft | 482 kts | 100° |
| 2026-05-06 17:41 | 51.18959 | 1.74136 | 34294 ft | 480 kts | 100° |
| 2026-05-06 17:41 | 51.18433 | 1.79395 | 34634 ft | 481 kts | 100° |
| 2026-05-06 17:42 | 51.17903 | 1.84662 | 34980 ft | 481 kts | 100° |
| 2026-05-06 17:42 | 51.17371 | 1.89929 | 35367 ft | 481 kts | 100° |
| 2026-05-06 17:42 | 51.16838 | 1.95181 | 35679 ft | 482 kts | 100° |
| 2026-05-06 17:42 | 51.16300 | 2.00458 | 36006 ft | 482 kts | 100° |
| 2026-05-06 17:43 | 51.15759 | 2.05743 | 36276 ft | 484 kts | 100° |
| 2026-05-06 17:43 | 51.15213 | 2.11049 | 36527 ft | 486 kts | 101° |
| 2026-05-06 17:43 | 51.14664 | 2.16362 | 36793 ft | 487 kts | 100° |
| 2026-05-06 17:43 | 51.14109 | 2.21703 | 36856 ft | 491 kts | 101° |
| 2026-05-06 17:44 | 51.13547 | 2.27076 | 33800 ft | 519 kts | 100° |
| 2026-05-06 17:44 | 51.12918 | 2.32994 | 32331 ft | 538 kts | 101° |
| 2026-05-06 17:44 | 51.12320 | 2.38698 | 32648 ft | 505 kts | 101° |
| 2026-05-06 17:44 | 51.11758 | 2.44070 | 32867 ft | 483 kts | 101° |
| 2026-05-06 17:45 | 51.11202 | 2.49340 | 33143 ft | 482 kts | 101° |
| 2026-05-06 17:45 | 51.10641 | 2.54599 | 33410 ft | 482 kts | 101° |
| 2026-05-06 17:45 | 51.10079 | 2.59836 | 33660 ft | 480 kts | 101° |
| 2026-05-06 17:45 | 51.09496 | 2.65070 | 33922 ft | 479 kts | 103° |
| 2026-05-06 17:46 | 51.08687 | 2.70191 | 34147 ft | 477 kts | 107° |
| 2026-05-06 17:46 | 51.07765 | 2.75247 | 34374 ft | 476 kts | 108° |
| 2026-05-06 17:46 | 51.07142 | 2.78586 | 34547 ft | 475 kts | 108° |
| 2026-05-06 17:46 | 51.06198 | 2.83632 | 34787 ft | 475 kts | 108° |
| 2026-05-06 17:47 | 51.05258 | 2.88677 | 35026 ft | 475 kts | 108° |
| 2026-05-06 17:47 | 51.04331 | 2.93696 | 35299 ft | 474 kts | 108° |
| 2026-05-06 17:47 | 51.03402 | 2.98750 | 35547 ft | 476 kts | 107° |
| 2026-05-06 17:47 | 51.02472 | 3.03813 | 35791 ft | 479 kts | 108° |
| 2026-05-06 17:48 | 51.01537 | 3.08897 | 36027 ft | 481 kts | 108° |
| 2026-05-06 17:48 | 51.00595 | 3.14012 | 36273 ft | 483 kts | 108° |
| 2026-05-06 17:48 | 50.99648 | 3.19133 | 36514 ft | 485 kts | 108° |
| 2026-05-06 17:48 | 50.98693 | 3.24288 | 36717 ft | 487 kts | 108° |
| 2026-05-06 17:49 | 50.96760 | 3.34671 | 36862 ft | 492 kts | 108° |
| 2026-05-06 17:49 | 50.94826 | 3.45009 | 36903 ft | 486 kts | 108° |
| 2026-05-06 17:50 | 50.92921 | 3.55130 | 36899 ft | 480 kts | 108° |
| 2026-05-06 17:50 | 50.91011 | 3.65250 | 36902 ft | 478 kts | 107° |
| 2026-05-06 17:51 | 50.89251 | 3.75425 | 36911 ft | 479 kts | 106° |
| 2026-05-06 17:51 | 50.87559 | 3.85627 | 36905 ft | 480 kts | 106° |
| 2026-05-06 17:52 | 50.85837 | 3.95874 | 36902 ft | 482 kts | 106° |
| 2026-05-06 17:52 | 50.84080 | 4.06148 | 36906 ft | 483 kts | 107° |
| 2026-05-06 17:53 | 50.82305 | 4.16423 | 36902 ft | 485 kts | 107° |
| 2026-05-06 17:53 | 50.80517 | 4.26711 | 36908 ft | 485 kts | 107° |
| 2026-05-06 17:54 | 50.78718 | 4.37005 | 36908 ft | 486 kts | 107° |
| 2026-05-06 17:54 | 50.76913 | 4.47281 | 36912 ft | 485 kts | 107° |
| 2026-05-06 17:55 | 50.75111 | 4.57482 | 36906 ft | 485 kts | 107° |
| 2026-05-06 17:55 | 50.73289 | 4.67740 | 36908 ft | 485 kts | 107° |
| 2026-05-06 17:56 | 50.71458 | 4.77984 | 36900 ft | 485 kts | 107° |
| 2026-05-06 17:56 | 50.69616 | 4.88231 | 36896 ft | 485 kts | 107° |
| 2026-05-06 17:57 | 50.67766 | 4.98468 | 36889 ft | 485 kts | 107° |
| 2026-05-06 17:57 | 50.65907 | 5.08698 | 36885 ft | 485 kts | 107° |
| 2026-05-06 17:58 | 50.64038 | 5.18920 | 36888 ft | 485 kts | 108° |
| 2026-05-06 17:58 | 50.62163 | 5.29126 | 36886 ft | 485 kts | 108° |
| 2026-05-06 17:59 | 50.60275 | 5.39341 | 36885 ft | 485 kts | 108° |
| 2026-05-06 17:59 | 50.58391 | 5.49480 | 36910 ft | 486 kts | 108° |
| 2026-05-06 18:00 | 50.56486 | 5.59673 | 36910 ft | 485 kts | 108° |
| 2026-05-06 18:00 | 50.54573 | 5.69854 | 36903 ft | 485 kts | 108° |
| 2026-05-06 18:01 | 50.52650 | 5.80034 | 36887 ft | 486 kts | 108° |
| 2026-05-06 18:01 | 50.50718 | 5.90210 | 36882 ft | 486 kts | 108° |
| 2026-05-06 18:02 | 50.48777 | 6.00376 | 36881 ft | 486 kts | 108° |
| 2026-05-06 18:02 | 50.46827 | 6.10534 | 36870 ft | 486 kts | 108° |
| 2026-05-06 18:03 | 50.44875 | 6.20653 | 36869 ft | 486 kts | 109° |
| 2026-05-06 18:03 | 50.42905 | 6.30817 | 36864 ft | 487 kts | 109° |
| 2026-05-06 18:04 | 50.41292 | 6.41133 | 36850 ft | 489 kts | 99° |
| 2026-05-06 18:04 | 50.40492 | 6.51740 | 36852 ft | 489 kts | 98° |
| 2026-05-06 18:05 | 50.39729 | 6.62344 | 36844 ft | 490 kts | 98° |
| 2026-05-06 18:05 | 50.38922 | 6.72947 | 36842 ft | 490 kts | 99° |
| 2026-05-06 18:06 | 50.38084 | 6.83539 | 36839 ft | 490 kts | 99° |
| 2026-05-06 18:06 | 50.37237 | 6.94072 | 36835 ft | 490 kts | 99° |
| 2026-05-06 18:07 | 50.36376 | 7.04676 | 36836 ft | 490 kts | 99° |
| 2026-05-06 18:07 | 50.35508 | 7.15268 | 36836 ft | 490 kts | 99° |
| 2026-05-06 18:08 | 50.34629 | 7.25864 | 36828 ft | 490 kts | 99° |
| 2026-05-06 18:08 | 50.33742 | 7.36439 | 36838 ft | 490 kts | 99° |
| 2026-05-06 18:09 | 50.32845 | 7.47006 | 36837 ft | 490 kts | 99° |
| 2026-05-06 18:09 | 50.31944 | 7.57512 | 36835 ft | 490 kts | 100° |
| 2026-05-06 18:10 | 50.31030 | 7.68062 | 36845 ft | 490 kts | 100° |
| 2026-05-06 18:10 | 50.30104 | 7.78636 | 36836 ft | 490 kts | 100° |
| 2026-05-06 18:11 | 50.29171 | 7.89188 | 36833 ft | 490 kts | 101° |
| 2026-05-06 18:11 | 50.27904 | 7.99627 | 36830 ft | 488 kts | 105° |
| 2026-05-06 18:12 | 50.26434 | 8.10010 | 36822 ft | 488 kts | 105° |
| 2026-05-06 18:12 | 50.24958 | 8.20374 | 36825 ft | 488 kts | 105° |
| 2026-05-06 18:13 | 50.23506 | 8.30665 | 36825 ft | 488 kts | 105° |
| 2026-05-06 18:13 | 50.22046 | 8.41030 | 36824 ft | 488 kts | 105° |
| 2026-05-06 18:14 | 50.20576 | 8.51396 | 36801 ft | 489 kts | 105° |
| 2026-05-06 18:14 | 50.19098 | 8.61746 | 36801 ft | 489 kts | 105° |
| 2026-05-06 18:15 | 50.17607 | 8.72105 | 36802 ft | 488 kts | 106° |
| 2026-05-06 18:15 | 50.15918 | 8.82371 | 36801 ft | 486 kts | 109° |